Impacts METAR Board
IDs:

KIAH - Houston/Bush Intl, TX, US

Updated at: 0100 UTC 24 Jun 2018
Potential Impact None Slight Moderate High
Time 23/13Z 23/14Z 23/15Z 23/16Z 23/17Z 23/18Z 23/19Z 23/20Z 23/21Z 23/22Z 23/23Z 24/00Z 24/01Z
Temp80 82 85 88 91 93 94 94 94 90 92 89 87
Dewpt77 77 77 76 76 76 75 75 75 77 77 77 76
Altim29.88 29.89 29.88 29.89 29.89 29.88 29.87 29.84 29.83 29.82 29.81 29.80 29.81
VIS10 10 10 10 10 10 10 10 10 10 10 10 10
CIG-- 16 32 37 50 55 60 -- -- -- -- -- --
CoverFEWBKNBKNBKNBKNBKNBKNSCTSCTSCTSCTSCTSCT
FltCatVFRMVFRVFRVFRVFRVFRVFRVFRVFRVFRVFRVFRVFR
WX--------------------------
WDir180210190210210170170180180180180160160
WSpd5 8 10 9 8 7 9 10 9 11 11 16 13
WGst-- -- 15 -- -- -- 15 15 -- -- -- 21 18
Raw hourly METARs
KIAH 231253Z 18005KT 10SM FEW024 27/25 A2988 RMK AO2 SLP116 T02670250
KIAH 231353Z 21008KT 10SM BKN016 BKN025 28/25 A2989 RMK AO2 SLP121 T02780250
KIAH 231453Z 19010G15KT 10SM SCT019 BKN032 29/25 A2988 RMK AO2 SLP118 T02940250 50005
KIAH 231553Z 21009KT 10SM SCT026 BKN037 31/24 A2989 RMK AO2 SLP120 T03110244
KIAH 231653Z 21008KT 10SM SCT035 BKN050 33/24 A2989 RMK AO2 SLP121 T03280244
KIAH 231753Z 17007KT 10SM SCT040 BKN055 34/24 A2988 RMK AO2 SLP117 T03390244 10339 20250 58001
KIAH 231853Z 17009G15KT 10SM SCT045 BKN060 34/24 A2987 RMK AO2 SLP113 T03440239
KIAH 231953Z 18010G15KT 10SM SCT043 SCT065 34/24 A2984 RMK AO2 SLP103 T03440239
KIAH 232053Z 18009KT 10SM SCT046 34/24 A2983 RMK AO2 SLP100 T03440239 56017
KIAH 232153Z 18011KT 10SM SCT042 32/25 A2982 RMK AO2 SLP097 T03220250
KIAH 232253Z 18011KT 10SM SCT035 SCT250 33/25 A2981 RMK AO2 SLP093 T03330250
KIAH 232353Z 16016G21KT 10SM SCT035 SCT250 32/25 A2980 RMK AO2 SLP089 T03170250 10350 20317 56011
KIAH 240053Z 16013G18KT 10SM FEW030 SCT250 31/24 A2981 RMK AO2 SLP094 T03060244



Page loaded:  01:16 UTC  |   06:16 PM Pacific  |   07:16 PM Mountain  |   08:16 PM Central  |   09:16 PM Eastern

 

ADVISORIES

FORECASTS

FORECASTS

OBSERVATIONS

USER TOOLS

ABOUT US